Upstream stations:
Downstream station:
SHEF ID: OEMO2 Okemah Hwy 56
STATION TYPE:
PRECIP STAGE RIV-FLOW VOLTAGE BAT-LOAD
in ft cfs volt volt
Ccp-Rev Ccp-Rev Ccp-Rev Ccp-Rev Ccp-Rev
(US/Central)
02/27 00:00 0.00 9.42 466 12.73 12.65
02/27 01:00 0.00 9.42 466 12.73 12.65
02/27 02:00 0.00 9.40 460 12.73 12.65
02/27 03:00 0.00 9.39 457 12.65 12.65
02/27 04:00 0.00 9.39 457 12.65 12.57
02/27 05:00 0.00 9.38 454 12.65 12.57
02/27 06:00 0.00 9.39 457 12.65 12.57
02/27 07:00 0.00 9.40 460 12.65 12.57
02/27 08:00 0.00 9.41 463 12.65 12.57
02/27 09:00 0.00 9.40 460 13.05 12.89
02/27 10:00 0.00 9.40 460 13.44 13.21
02/27 11:00 0.00 9.39 457 14.16 13.21
02/27 12:00 0.01 9.35 446 13.92 13.21
02/27 13:00 0.00 9.35 446 13.84 13.21
02/27 14:00 0.00 9.36 449 13.76 13.21
02/27 15:00 0.00 9.38 454 14.08 13.13
02/27 16:00 0.00 9.39 457 13.44 13.05
02/27 17:00 0.00 9.41 463 13.68 13.05
02/27 18:00 0.00 9.41 463 13.84 13.05
02/27 19:00 0.00 9.45 475 12.97 12.89
02/27 20:00 0.00 9.46 478 12.89 12.81
02/27 21:00 0.00 9.46 478 12.89 12.81
02/27 22:00 0.00 9.47 481 12.81 12.73
02/27 23:00 ---- ---- ---- ---- ----